TimeCST,TemperatureF,Dew PointF,Humidity,Sea Level PressureIn,VisibilityMPH,Wind Direction,Wind SpeedMPH,Gust SpeedMPH,PrecipitationIn,Events,Conditions,WindDirDegrees,DateUTC
12:14 AM,-9999,-9999,N/A,30.27,10.0,ESE,6.9,-,N/A,,Clear,120,2013-03-08 06:14:00
12:33 AM,-9999,-9999,N/A,30.27,10.0,ESE,6.9,-,N/A,,Clear,120,2013-03-08 06:33:00
12:54 AM,-9999,-9999,N/A,30.28,7.0,ESE,5.8,-,N/A,,Clear,120,2013-03-08 06:54:00
1:14 AM,-9999,-9999,N/A,30.27,7.0,ESE,6.9,-,N/A,,Clear,120,2013-03-08 07:14:00
1:34 AM,-9999,-9999,N/A,30.28,7.0,ESE,5.8,-,N/A,,Clear,120,2013-03-08 07:34:00
1:54 AM,-9999,-9999,N/A,30.28,7.0,ESE,5.8,-,N/A,,Clear,120,2013-03-08 07:54:00
2:14 AM,-9999,-9999,N/A,30.28,5.0,ESE,5.8,-,N/A,,Haze,120,2013-03-08 08:14:00
2:34 AM,-9999,-9999,N/A,30.27,5.0,ESE,6.9,-,N/A,,Haze,120,2013-03-08 08:34:00
2:54 AM,-9999,-9999,N/A,30.26,5.0,ESE,6.9,-,N/A,,Haze,110,2013-03-08 08:54:00
3:14 AM,-9999,-9999,N/A,30.26,5.0,ESE,4.6,-,N/A,,Haze,110,2013-03-08 09:14:00
3:34 AM,-9999,-9999,N/A,30.26,4.0,ESE,4.6,-,N/A,,Haze,120,2013-03-08 09:34:00
3:54 AM,-9999,-9999,N/A,30.26,4.0,ESE,4.6,-,N/A,,Haze,110,2013-03-08 09:54:00
4:13 AM,-9999,-9999,N/A,30.26,4.0,ESE,5.8,-,N/A,,Haze,110,2013-03-08 10:13:00
4:34 AM,-9999,-9999,N/A,30.27,4.0,ESE,4.6,-,N/A,,Haze,120,2013-03-08 10:34:00
4:54 AM,-9999,-9999,N/A,30.27,3.0,ESE,4.6,-,N/A,,Clear,110,2013-03-08 10:54:00
5:14 AM,-9999,-9999,N/A,30.27,3.0,ESE,3.5,-,N/A,,Clear,110,2013-03-08 11:14:00
5:34 AM,-9999,-9999,N/A,30.27,3.0,ESE,4.6,-,N/A,,Clear,110,2013-03-08 11:34:00
5:54 AM,-9999,-9999,N/A,30.27,2.5,ESE,4.6,-,N/A,,Clear,110,2013-03-08 11:54:00
6:13 AM,-9999,-9999,N/A,30.27,2.5,ESE,3.5,-,N/A,,Clear,120,2013-03-08 12:13:00
6:34 AM,-9999,-9999,N/A,30.27,2.5,ESE,5.8,-,N/A,,Clear,120,2013-03-08 12:34:00
6:53 AM,-9999,-9999,N/A,30.27,1.5,ESE,5.8,-,N/A,,Mist,110,2013-03-08 12:53:00
7:14 AM,-9999,-9999,N/A,30.26,1.5,ESE,5.8,-,N/A,,Mist,120,2013-03-08 13:14:00
7:34 AM,-9999,-9999,N/A,30.26,2.0,ESE,5.8,-,N/A,,Clear,120,2013-03-08 13:34:00
7:54 AM,-9999,-9999,N/A,30.26,2.0,ESE,3.5,-,N/A,,Clear,120,2013-03-08 13:54:00
8:14 AM,-9999,-9999,N/A,30.25,2.0,ESE,5.8,-,N/A,,Clear,120,2013-03-08 14:14:00
8:34 AM,-9999,-9999,N/A,30.26,2.5,SE,4.6,-,N/A,,Clear,140,2013-03-08 14:34:00
8:54 AM,-9999,-9999,N/A,30.26,2.5,SE,4.6,-,N/A,,Clear,130,2013-03-08 14:54:00
9:14 AM,-9999,-9999,N/A,30.26,3.0,SE,4.6,-,N/A,,Clear,140,2013-03-08 15:14:00
9:34 AM,-9999,-9999,N/A,30.26,3.0,SE,4.6,-,N/A,,Clear,140,2013-03-08 15:34:00
9:54 AM,-9999,-9999,N/A,30.27,3.0,SE,5.8,-,N/A,,Clear,140,2013-03-08 15:54:00
10:14 AM,-9999,-9999,N/A,30.26,4.0,SSE,4.6,-,N/A,,Haze,150,2013-03-08 16:14:00
10:31 AM,23.0,18.9,84,30.25,4.0,SE,4.6,-,N/A,,Clear,130,2013-03-08 16:31:00
10:54 AM,23.9,19.2,82,30.24,4.0,SE,8.1,-,N/A,,Haze,140,2013-03-08 16:54:00
11:14 AM,24.6,19.9,82,30.24,4.0,SE,8.1,-,N/A,,Clear,140,2013-03-08 17:14:00
11:33 AM,25.3,20.1,81,30.24,4.0,SE,6.9,-,N/A,,Haze,140,2013-03-08 17:33:00
11:54 AM,26.1,21.0,81,30.24,4.0,SE,9.2,-,N/A,,Haze,130,2013-03-08 17:54:00
12:14 PM,27.0,21.7,81,30.24,4.0,SE,8.1,-,N/A,,Haze,140,2013-03-08 18:14:00
12:34 PM,27.9,22.5,80,30.23,4.0,SE,8.1,-,N/A,,Haze,130,2013-03-08 18:34:00
12:54 PM,28.4,23.0,80,30.22,4.0,ESE,9.2,-,N/A,,Haze,120,2013-03-08 18:54:00
1:14 PM,29.3,23.7,80,30.21,4.0,SE,8.1,-,N/A,,Haze,130,2013-03-08 19:14:00
1:34 PM,30.2,24.1,78,30.21,5.0,SE,8.1,-,N/A,,Haze,130,2013-03-08 19:34:00
1:54 PM,30.2,24.3,79,30.20,5.0,ESE,6.9,-,N/A,,Haze,110,2013-03-08 19:54:00
2:14 PM,30.9,24.8,78,30.20,5.0,ESE,5.8,-,N/A,,Haze,120,2013-03-08 20:14:00
2:34 PM,31.6,24.6,75,30.20,5.0,East,8.1,-,0.01,,Haze,90,2013-03-08 20:34:00
2:54 PM,32.0,24.6,74,30.20,5.0,East,8.1,-,0.01,,Haze,100,2013-03-08 20:54:00
3:14 PM,32.0,24.4,74,30.20,7.0,East,9.2,-,N/A,,Clear,90,2013-03-08 21:14:00
3:34 PM,32.2,25.7,77,30.20,5.0,East,9.2,-,N/A,,Haze,90,2013-03-08 21:34:00
3:54 PM,32.0,25.7,78,30.19,5.0,East,9.2,-,N/A,,Haze,90,2013-03-08 21:54:00
4:14 PM,32.0,26.1,79,30.18,5.0,East,9.2,-,N/A,,Haze,100,2013-03-08 22:14:00
4:34 PM,32.2,26.6,80,30.17,5.0,East,9.2,-,N/A,,Haze,90,2013-03-08 22:34:00
4:53 PM,32.5,26.6,79,30.17,5.0,East,8.1,-,N/A,,Haze,100,2013-03-08 22:53:00
5:14 PM,32.2,26.4,79,30.17,5.0,East,11.5,-,N/A,,Haze,100,2013-03-08 23:14:00
5:34 PM,32.0,26.2,79,30.16,5.0,East,9.2,-,N/A,,Haze,100,2013-03-08 23:34:00
5:54 PM,31.3,26.1,81,30.17,5.0,East,8.1,-,N/A,,Haze,100,2013-03-08 23:54:00
6:14 PM,30.7,25.7,82,30.16,5.0,East,8.1,-,N/A,,Haze,100,2013-03-09 00:14:00
6:34 PM,30.0,25.7,84,30.15,5.0,East,8.1,-,N/A,,Clear,90,2013-03-09 00:34:00
6:54 PM,29.7,25.5,85,30.14,7.0,East,8.1,-,N/A,,Clear,90,2013-03-09 00:54:00
7:14 PM,29.3,25.5,86,30.13,7.0,East,9.2,-,N/A,,Clear,90,2013-03-09 01:14:00
7:34 PM,29.3,25.7,86,30.12,5.0,East,8.1,-,N/A,,Clear,90,2013-03-09 01:34:00
7:53 PM,29.3,26.1,88,30.11,5.0,East,10.4,-,N/A,,Clear,100,2013-03-09 01:53:00
8:14 PM,29.5,26.4,88,30.10,5.0,East,9.2,-,N/A,,Clear,90,2013-03-09 02:14:00
8:34 PM,30.0,26.6,87,30.10,5.0,East,11.5,-,N/A,,Clear,100,2013-03-09 02:34:00
8:53 PM,29.8,26.6,88,30.09,5.0,East,10.4,-,N/A,,Scattered Clouds,100,2013-03-09 02:53:00
9:14 PM,30.2,27.0,88,30.09,5.0,East,11.5,-,N/A,,Mostly Cloudy,100,2013-03-09 03:14:00
9:34 PM,30.9,27.5,87,30.09,5.0,East,10.4,-,N/A,,Overcast,100,2013-03-09 03:34:00
9:54 PM,31.5,27.9,87,30.08,7.0,East,11.5,-,N/A,,Overcast,100,2013-03-09 03:54:00
10:14 PM,31.5,27.9,87,30.07,7.0,ESE,11.5,-,N/A,,Overcast,110,2013-03-09 04:14:00
10:34 PM,31.8,28.2,87,30.07,7.0,ESE,12.7,-,N/A,,Overcast,110,2013-03-09 04:34:00
10:54 PM,31.8,28.4,87,30.06,7.0,ESE,11.5,-,N/A,,Overcast,110,2013-03-09 04:54:00
11:14 PM,32.0,28.4,87,30.06,7.0,ESE,10.4,-,N/A,,Overcast,120,2013-03-09 05:14:00
11:34 PM,32.0,29.3,90,30.06,4.0,SE,11.5,-,0.01,Rain,Light Rain,130,2013-03-09 05:34:00
11:54 PM,32.2,29.8,91,30.05,4.0,SE,11.5,-,0.01,Rain,Light Rain,130,2013-03-09 05:54:00